createdAt,value
2023-04-26T00:00:37.707Z,94.95
2023-04-26T00:01:37.709Z,95.72
2023-04-26T00:02:37.853Z,95.62
2023-04-26T00:03:38.085Z,95.62
2023-04-26T00:04:37.841Z,95.66
2023-04-26T00:05:37.746Z,95.97
2023-04-26T00:06:37.682Z,95.66
2023-04-26T00:07:37.658Z,95.76
2023-04-26T00:08:37.667Z,96.49
2023-04-26T00:09:37.682Z,95.97
2023-04-26T00:10:37.695Z,96.91
2023-04-26T00:11:37.646Z,97.22
2023-04-26T00:12:37.634Z,97.64
2023-04-26T00:13:37.622Z,97.53
2023-04-26T00:14:37.637Z,97.43
2023-04-26T00:15:37.629Z,97.53
2023-04-26T00:16:37.690Z,97.01
2023-04-26T00:17:37.641Z,96.39
2023-04-26T00:18:37.615Z,96.43
2023-04-26T00:19:37.604Z,97.12
2023-04-26T00:20:37.571Z,97.12
2023-04-26T00:21:37.569Z,97.58
2023-04-26T00:22:37.604Z,97.99
2023-04-26T00:23:37.640Z,97.78
2023-04-26T00:24:37.647Z,97.64
2023-04-26T00:25:37.600Z,97.53
2023-04-26T00:26:37.596Z,98.99
2023-04-26T00:27:37.593Z,98.78
2023-04-26T00:28:37.599Z,98.68
2023-04-26T00:29:37.554Z,98.68
2023-04-26T00:30:37.577Z,98.99
2023-04-26T00:31:37.549Z,98.99
2023-04-26T00:32:37.556Z,98.22
2023-04-26T00:33:37.518Z,97.59
2023-04-26T00:34:38.140Z,97.59
2023-04-26T00:35:37.550Z,96.76
2023-04-26T00:36:37.483Z,95.89
2023-04-26T00:37:37.452Z,95.36
2023-04-26T00:38:37.439Z,94.89
2023-04-26T00:39:37.429Z,94.32
2023-04-26T00:40:37.481Z,94.57
2023-04-26T00:41:37.424Z,94.57
2023-04-26T00:42:37.448Z,94.89
2023-04-26T00:43:37.421Z,94.78
2023-04-26T00:44:37.436Z,93.89
2023-04-26T00:45:57.561Z,94.20
2023-04-26T00:46:37.462Z,93.68
2023-04-26T00:47:37.457Z,93.68
2023-04-26T00:48:37.395Z,93.41
2023-04-26T00:49:37.389Z,94.56
2023-04-26T00:50:37.374Z,95.29
2023-04-26T00:51:37.358Z,95.29
2023-04-26T00:52:37.439Z,95.02
2023-04-26T00:53:37.399Z,96.06
2023-04-26T00:54:37.332Z,96.06
2023-04-26T00:55:37.394Z,95.85
2023-04-26T00:56:37.340Z,95.64
2023-04-26T00:57:37.331Z,96.37
2023-04-26T00:58:37.349Z,96.79
2023-04-26T00:59:37.359Z,96.52
2023-04-26T01:00:37.332Z,96.62
2023-04-26T01:01:37.393Z,97.30
2023-04-26T01:02:37.408Z,97.14
2023-04-26T01:03:37.398Z,97.35
2023-04-26T01:04:37.852Z,97.98
2023-04-26T01:05:37.248Z,98.02
2023-04-26T01:06:37.268Z,98.13
2023-04-26T01:07:37.254Z,98.02
2023-04-26T01:08:37.276Z,97.81
2023-04-26T01:09:37.255Z,98.02
2023-04-26T01:10:37.270Z,97.77
2023-04-26T01:11:37.243Z,97.40
2023-04-26T01:12:37.223Z,97.92
2023-04-26T01:13:37.182Z,99.17
2023-04-26T01:14:37.211Z,99.99
2023-04-26T01:15:37.177Z,99.99
2023-04-26T01:16:37.303Z,99.99
2023-04-26T01:17:37.197Z,99.85
2023-04-26T01:18:37.207Z,99.13
2023-04-26T01:19:37.154Z,98.50
2023-04-26T01:20:37.163Z,98.23
2023-04-26T01:21:37.161Z,98.65
2023-04-26T01:22:37.195Z,99.48
2023-04-26T01:23:37.138Z,99.99
2023-04-26T01:24:37.123Z,99.99
2023-04-26T01:25:37.137Z,99.90
2023-04-26T01:26:37.097Z,99.99
2023-04-26T01:27:37.130Z,99.96
2023-04-26T01:28:37.149Z,99.48
2023-04-26T01:29:37.098Z,98.96
2023-04-26T01:30:37.075Z,99.07
2023-04-26T01:31:37.097Z,99.59
2023-04-26T01:32:37.101Z,99.99
2023-04-26T01:33:37.055Z,99.59
2023-04-26T01:34:37.088Z,99.69
2023-04-26T01:35:37.062Z,99.90
2023-04-26T01:36:37.073Z,99.99
2023-04-26T01:37:37.036Z,99.44
2023-04-26T01:38:37.034Z,99.13
2023-04-26T01:39:37.056Z,98.92
2023-04-26T01:40:37.050Z,98.60
2023-04-26T01:41:36.996Z,97.62
2023-04-26T01:42:37.015Z,97.72
2023-04-26T01:43:36.992Z,98.14
2023-04-26T01:44:37.006Z,97.77
2023-04-26T01:45:36.990Z,97.88
2023-04-26T01:46:37.064Z,97.14
2023-04-26T01:47:36.993Z,97.30
2023-04-26T01:48:36.946Z,98.08
2023-04-26T01:49:36.946Z,97.92
2023-04-26T01:50:36.942Z,97.77
2023-04-26T01:51:36.943Z,97.88
2023-04-26T01:52:36.955Z,98.08
2023-04-26T01:53:36.952Z,98.19
2023-04-26T01:54:36.927Z,97.88
2023-04-26T01:55:36.893Z,97.71
2023-04-26T01:56:36.913Z,97.81
2023-04-26T01:57:36.903Z,97.71
2023-04-26T01:58:36.926Z,98.02
2023-04-26T01:59:36.874Z,97.67
2023-04-26T02:00:36.864Z,97.81
2023-04-26T02:01:36.865Z,98.02
2023-04-26T02:02:37.018Z,97.71
2023-04-26T02:03:36.929Z,97.50
2023-04-26T02:04:36.904Z,97.24
2023-04-26T02:05:36.833Z,96.61
2023-04-26T02:06:36.827Z,96.97
2023-04-26T02:07:36.845Z,98.18
2023-04-26T02:08:36.841Z,98.11
2023-04-26T02:09:36.835Z,97.91
2023-04-26T02:10:37.274Z,97.86
2023-04-26T02:11:36.821Z,98.01
2023-04-26T02:12:36.805Z,98.38
2023-04-26T02:13:36.793Z,99.43
2023-04-26T02:14:36.765Z,99.22
2023-04-26T02:15:36.782Z,99.43
2023-04-26T02:16:36.895Z,99.16
2023-04-26T02:17:36.811Z,99.22
2023-04-26T02:18:36.764Z,98.53
2023-04-26T02:19:36.738Z,98.01
2023-04-26T02:20:36.728Z,98.63
2023-04-26T02:21:36.707Z,99.99
2023-04-26T02:22:36.802Z,99.99
2023-04-26T02:23:36.721Z,99.99
2023-04-26T02:24:36.707Z,99.99
2023-04-26T02:25:36.714Z,99.99
2023-04-26T02:26:57.692Z,99.99
2023-04-26T02:27:36.688Z,99.62
2023-04-26T02:28:36.763Z,99.52
2023-04-26T02:29:43.967Z,99.73
2023-04-26T02:30:37.708Z,99.99
2023-04-26T02:31:36.733Z,99.68
2023-04-26T02:32:36.733Z,99.26
2023-04-26T02:33:36.642Z,99.37
2023-04-26T02:34:36.695Z,99.57
2023-04-26T02:35:36.647Z,99.99
2023-04-26T02:36:36.632Z,99.99
2023-04-26T02:37:36.623Z,99.99
2023-04-26T02:38:36.738Z,99.79
2023-04-26T02:39:36.586Z,99.47
2023-04-26T02:40:36.632Z,99.31
2023-04-26T02:41:36.605Z,99.68
2023-04-26T02:42:36.590Z,99.10
2023-04-26T02:43:36.559Z,98.79
2023-04-26T02:44:36.585Z,99.20
2023-04-26T02:45:36.564Z,99.46
2023-04-26T02:46:36.644Z,99.15
2023-04-26T02:47:36.545Z,99.46
2023-04-26T02:48:36.522Z,99.04
2023-04-26T02:49:36.526Z,99.25
2023-04-26T02:50:36.544Z,99.99
2023-04-26T02:51:36.519Z,99.99
2023-04-26T02:52:36.532Z,99.99
2023-04-26T02:53:36.505Z,99.99
2023-04-26T02:54:36.496Z,99.99
2023-04-26T02:55:36.488Z,99.99
2023-04-26T02:56:36.466Z,99.99
2023-04-26T02:57:36.475Z,99.99
2023-04-26T02:58:36.526Z,99.99
2023-04-26T02:59:36.437Z,99.99
2023-04-26T03:00:36.455Z,99.99
2023-04-26T03:01:36.505Z,99.99
2023-04-26T03:02:36.577Z,99.99
2023-04-26T03:03:36.523Z,99.99
2023-04-26T03:04:36.473Z,99.99
2023-04-26T03:05:36.421Z,99.99
2023-04-26T03:06:36.394Z,99.99
2023-04-26T03:07:36.385Z,99.99
2023-04-26T03:08:36.395Z,99.99
2023-04-26T03:09:36.382Z,99.37
2023-04-26T03:10:36.407Z,99.57
2023-04-26T03:11:36.373Z,99.16
2023-04-26T03:12:36.360Z,98.79
2023-04-26T03:13:36.373Z,98.63
2023-04-26T03:14:36.334Z,98.95
2023-04-26T03:15:36.334Z,99.52
2023-04-26T03:16:36.568Z,99.10
2023-04-26T03:17:36.370Z,99.31
2023-04-26T03:18:36.292Z,99.16
2023-04-26T03:19:36.326Z,99.20
2023-04-26T03:20:36.297Z,99.31
2023-04-26T03:21:36.318Z,99.52
2023-04-26T03:22:36.340Z,99.20
2023-04-26T03:23:36.303Z,99.20
2023-04-26T03:24:36.298Z,99.31
2023-04-26T03:25:36.279Z,99.16
2023-04-26T03:26:36.260Z,98.58
2023-04-26T03:27:36.261Z,98.99
2023-04-26T03:28:36.280Z,99.10
2023-04-26T03:29:36.261Z,99.15
2023-04-26T03:30:36.227Z,99.35
2023-04-26T03:31:36.269Z,98.62
2023-04-26T03:32:36.289Z,97.99
2023-04-26T03:33:36.217Z,98.35
2023-04-26T03:34:36.266Z,98.14
2023-04-26T03:35:36.225Z,98.04
2023-04-26T03:36:36.183Z,97.62
2023-04-26T03:37:36.213Z,97.72
2023-04-26T03:38:36.214Z,97.94
2023-04-26T03:39:36.216Z,97.72
2023-04-26T03:40:36.228Z,97.88
2023-04-26T03:41:36.189Z,97.67
2023-04-26T03:42:36.189Z,97.92
2023-04-26T03:43:36.181Z,97.92
2023-04-26T03:44:36.169Z,98.19
2023-04-26T03:45:36.172Z,98.61
2023-04-26T03:46:36.187Z,99.13
2023-04-26T03:47:36.175Z,99.99
2023-04-26T03:48:36.150Z,99.99
2023-04-26T03:49:41.628Z,99.99
2023-04-26T03:50:36.098Z,99.99
2023-04-26T03:51:36.095Z,99.99
2023-04-26T03:52:36.143Z,99.76
2023-04-26T03:53:36.126Z,99.82
2023-04-26T03:54:36.096Z,99.13
2023-04-26T03:55:36.129Z,99.86
2023-04-26T03:56:36.072Z,99.80
2023-04-26T03:57:36.063Z,99.49
2023-04-26T03:58:36.075Z,99.99
2023-04-26T03:59:36.060Z,99.99
2023-04-26T04:00:36.129Z,99.99
2023-04-26T04:01:36.030Z,99.59
2023-04-26T04:02:36.275Z,99.07
2023-04-26T04:03:37.865Z,99.99
2023-04-26T04:04:36.115Z,99.99
2023-04-26T04:05:36.071Z,99.99
2023-04-26T04:06:36.013Z,99.99
2023-04-26T04:07:35.980Z,99.99
2023-04-26T04:08:35.975Z,99.99
2023-04-26T04:09:35.954Z,99.99
2023-04-26T04:10:35.976Z,99.99
2023-04-26T04:11:35.968Z,99.99
2023-04-26T04:12:35.959Z,99.99
2023-04-26T04:13:35.923Z,99.99
2023-04-26T04:14:35.905Z,99.99
2023-04-26T04:15:35.996Z,99.99
2023-04-26T04:16:35.967Z,99.99
2023-04-26T04:17:38.233Z,99.99
2023-04-26T04:18:35.886Z,99.99
2023-04-26T04:19:35.906Z,99.99
2023-04-26T04:20:35.908Z,99.99
2023-04-26T04:21:35.877Z,99.99
2023-04-26T04:22:36.375Z,99.99
2023-04-26T04:23:35.890Z,99.99
2023-04-26T04:24:35.881Z,99.99
2023-04-26T04:25:35.870Z,99.99
2023-04-26T04:26:35.844Z,99.99
2023-04-26T04:27:35.841Z,99.99
2023-04-26T04:28:35.862Z,99.99
2023-04-26T04:29:35.835Z,99.99
2023-04-26T04:30:35.829Z,99.99
2023-04-26T04:31:35.844Z,99.99
2023-04-26T04:32:39.660Z,99.99
2023-04-26T04:33:35.803Z,99.99
2023-04-26T04:34:35.837Z,99.19
2023-04-26T04:35:35.777Z,98.88
2023-04-26T04:36:35.778Z,98.56
2023-04-26T04:37:35.766Z,99.24
2023-04-26T04:38:35.745Z,98.71
2023-04-26T04:39:35.737Z,99.61
2023-04-26T04:40:35.797Z,98.98
2023-04-26T04:41:35.750Z,99.44
2023-04-26T04:42:35.726Z,98.88
2023-04-26T04:43:35.728Z,99.02
2023-04-26T04:44:35.714Z,98.50
2023-04-26T04:45:35.749Z,99.44
2023-04-26T04:46:35.765Z,98.92
2023-04-26T04:47:35.722Z,99.29
2023-04-26T04:48:35.694Z,99.71
2023-04-26T04:49:35.676Z,99.71
2023-04-26T04:50:35.672Z,99.29
2023-04-26T04:51:35.636Z,99.19
2023-04-26T04:52:35.700Z,98.71
2023-04-26T04:53:35.685Z,98.35
2023-04-26T04:54:35.647Z,98.50
2023-04-26T04:55:35.627Z,98.67
2023-04-26T04:56:35.607Z,99.40
2023-04-26T04:57:35.630Z,99.08
2023-04-26T04:58:35.638Z,99.56
2023-04-26T04:59:42.436Z,99.56
2023-04-26T05:00:35.587Z,99.56
2023-04-26T05:01:35.615Z,98.72
2023-04-26T05:02:35.644Z,99.15
2023-04-26T05:03:35.759Z,99.35
2023-04-26T05:04:35.711Z,99.56
2023-04-26T05:05:35.557Z,99.35
2023-04-26T05:06:35.565Z,99.35
2023-04-26T05:07:35.571Z,98.67
2023-04-26T05:08:35.545Z,98.67
2023-04-26T05:09:35.538Z,99.71
2023-04-26T05:10:35.562Z,99.25
2023-04-26T05:11:35.534Z,99.04
2023-04-26T05:12:35.582Z,99.10
2023-04-26T05:13:35.558Z,99.20
2023-04-26T05:14:35.486Z,98.99
2023-04-26T05:15:35.481Z,99.31
2023-04-26T05:16:35.554Z,98.99
2023-04-26T05:17:35.568Z,98.63
2023-04-26T05:18:35.459Z,98.63
2023-04-26T05:19:35.453Z,98.95
2023-04-26T05:20:35.473Z,98.69
2023-04-26T05:21:35.440Z,98.80
2023-04-26T05:22:35.480Z,99.43
2023-04-26T05:23:35.429Z,99.43
2023-04-26T05:24:35.433Z,99.38
2023-04-26T05:25:50.978Z,98.65
2023-04-26T05:26:36.421Z,97.86
2023-04-26T05:27:35.390Z,98.13
2023-04-26T05:28:35.636Z,97.97
2023-04-26T05:29:35.385Z,98.13
2023-04-26T05:30:35.394Z,97.92
2023-04-26T05:31:35.382Z,97.14
2023-04-26T05:32:35.436Z,97.14
2023-04-26T05:33:35.350Z,97.04
2023-04-26T05:34:35.426Z,96.83
2023-04-26T05:35:35.351Z,96.48
2023-04-26T05:36:35.361Z,96.01
2023-04-26T05:37:35.333Z,94.87
2023-04-26T05:38:35.347Z,94.35
2023-04-26T05:39:41.037Z,93.93
2023-04-26T05:40:35.347Z,93.93
2023-04-26T05:41:35.301Z,94.56
2023-04-26T05:42:35.311Z,94.76
2023-04-26T05:43:35.294Z,93.98
2023-04-26T05:44:35.280Z,94.87
2023-04-26T05:45:35.319Z,94.76
2023-04-26T05:46:35.314Z,94.72
2023-04-26T05:47:35.301Z,93.73
2023-04-26T05:48:35.312Z,93.99
2023-04-26T05:49:35.264Z,93.58
2023-04-26T05:50:35.273Z,93.62
2023-04-26T05:51:35.250Z,93.62
2023-04-26T05:52:35.283Z,93.79
2023-04-26T05:53:35.204Z,93.99
2023-04-26T05:54:35.215Z,93.64
2023-04-26T05:55:35.216Z,93.74
2023-04-26T05:56:35.194Z,92.55
2023-04-26T05:57:35.255Z,92.35
2023-04-26T05:58:35.221Z,92.03
2023-04-26T05:59:35.179Z,91.78
2023-04-26T06:00:35.215Z,91.41
2023-04-26T06:01:35.181Z,92.24
2023-04-26T06:02:35.249Z,91.41
2023-04-26T06:03:35.466Z,90.58
2023-04-26T06:04:35.308Z,90.64
2023-04-26T06:05:35.190Z,90.85
2023-04-26T06:06:35.143Z,90.91
2023-04-26T06:07:35.143Z,89.98
2023-04-26T06:08:35.101Z,89.67
2023-04-26T06:09:35.118Z,90.08
2023-04-26T06:10:35.154Z,89.77
2023-04-26T06:11:35.100Z,89.67
2023-04-26T06:12:35.113Z,89.11
2023-04-26T06:13:35.078Z,88.38
2023-04-26T06:14:35.084Z,88.17
2023-04-26T06:15:35.063Z,88.10
2023-04-26T06:16:35.142Z,88.17
2023-04-26T06:17:35.060Z,88.59
2023-04-26T06:18:35.050Z,87.86
2023-04-26T06:19:35.123Z,87.92
2023-04-26T06:20:35.036Z,87.09
2023-04-26T06:21:35.007Z,86.78
2023-04-26T06:22:35.057Z,86.88
2023-04-26T06:23:35.016Z,86.88
2023-04-26T06:24:35.028Z,87.16
2023-04-26T06:25:34.996Z,86.74
2023-04-26T06:26:34.997Z,86.29
2023-04-26T06:27:34.978Z,85.39
2023-04-26T06:28:35.000Z,85.46
2023-04-26T06:29:34.981Z,84.83
2023-04-26T06:30:34.968Z,85.25
2023-04-26T06:31:35.050Z,85.19
2023-04-26T06:32:35.041Z,85.46
2023-04-26T06:33:34.937Z,85.83
2023-04-26T06:34:35.008Z,84.52
2023-04-26T06:35:34.933Z,85.11
2023-04-26T06:36:34.927Z,85.06
2023-04-26T06:37:34.912Z,85.17
2023-04-26T06:38:34.902Z,84.34
2023-04-26T06:39:34.882Z,84.41
2023-04-26T06:40:34.942Z,83.58
2023-04-26T06:41:34.870Z,82.13
2023-04-26T06:42:34.869Z,82.65
2023-04-26T06:43:34.871Z,82.29
2023-04-26T06:44:34.874Z,82.29
2023-04-26T06:45:34.857Z,82.40
2023-04-26T06:46:34.998Z,82.36
2023-04-26T06:47:34.855Z,81.88
2023-04-26T06:48:34.840Z,81.74
2023-04-26T06:49:34.822Z,82.15
2023-04-26T06:50:34.807Z,82.15
2023-04-26T06:51:34.824Z,80.91
2023-04-26T06:52:34.867Z,80.46
2023-04-26T06:53:34.780Z,80.40
2023-04-26T06:54:39.876Z,80.71
2023-04-26T06:55:35.780Z,80.46
2023-04-26T06:56:34.953Z,80.05
2023-04-26T06:57:34.762Z,80.53
2023-04-26T06:58:34.795Z,79.87
2023-04-26T06:59:34.768Z,78.67
2023-04-26T07:00:34.758Z,79.01
2023-04-26T07:01:34.770Z,77.87
2023-04-26T07:02:34.833Z,77.77
2023-04-26T07:03:34.983Z,76.94
2023-04-26T07:04:34.966Z,77.77
2023-04-26T07:05:39.205Z,76.94
2023-04-26T07:06:34.866Z,76.81
2023-04-26T07:07:34.835Z,76.39
2023-04-26T07:08:34.683Z,75.87
2023-04-26T07:09:34.696Z,75.43
2023-04-26T07:10:34.749Z,73.68
2023-04-26T07:11:34.717Z,73.57
2023-04-26T07:12:34.670Z,73.60
2023-04-26T07:13:34.737Z,73.60
2023-04-26T07:14:35.974Z,75.01
2023-04-26T07:15:34.643Z,73.77
2023-04-26T07:16:34.684Z,73.05
2023-04-26T07:17:34.708Z,72.74
2023-04-26T07:18:34.658Z,72.50
2023-04-26T07:19:34.620Z,72.64
2023-04-26T07:20:34.611Z,73.26
2023-04-26T07:21:34.599Z,73.74
2023-04-26T07:22:34.640Z,72.50
2023-04-26T07:23:34.618Z,71.55
2023-04-26T07:24:34.849Z,71.72
2023-04-26T07:25:34.587Z,70.68
2023-04-26T07:26:34.567Z,70.62
2023-04-26T07:27:34.544Z,70.58
2023-04-26T07:28:34.607Z,68.11
2023-04-26T07:29:34.552Z,67.93
2023-04-26T07:30:34.527Z,68.24
2023-04-26T07:31:34.544Z,69.59
2023-04-26T07:32:34.611Z,68.35
2023-04-26T07:33:34.757Z,68.66
2023-04-26T07:34:34.764Z,69.45
2023-04-26T07:35:34.527Z,67.66
2023-04-26T07:36:34.518Z,66.53
2023-04-26T07:37:34.502Z,65.84
2023-04-26T07:38:34.476Z,65.56
2023-04-26T07:39:34.464Z,65.77
2023-04-26T07:40:34.478Z,65.70
2023-04-26T07:41:34.454Z,65.67
2023-04-26T07:42:34.461Z,65.56
2023-04-26T07:43:34.433Z,65.12
2023-04-26T07:44:34.444Z,64.84
2023-04-26T07:45:34.580Z,65.18
2023-04-26T07:46:34.462Z,65.28
2023-04-26T07:47:34.445Z,65.80
2023-04-26T07:48:34.428Z,64.74
2023-04-26T07:49:34.393Z,63.46
2023-04-26T07:50:34.371Z,63.77
2023-04-26T07:51:34.398Z,65.28
2023-04-26T07:52:34.408Z,65.18
2023-04-26T07:53:34.376Z,65.18
2023-04-26T07:54:34.375Z,65.49
2023-04-26T07:55:34.417Z,64.64
2023-04-26T07:56:34.348Z,63.81
2023-04-26T07:57:34.331Z,63.99
2023-04-26T07:58:34.394Z,62.21
2023-04-26T07:59:34.335Z,61.90
2023-04-26T08:00:34.321Z,60.63
2023-04-26T08:01:34.320Z,59.50
2023-04-26T08:02:44.067Z,60.61
2023-04-26T08:03:35.566Z,59.06
2023-04-26T08:04:34.558Z,58.59
2023-04-26T08:05:34.458Z,57.31
2023-04-26T08:06:34.260Z,56.36
2023-04-26T08:07:34.264Z,55.02
2023-04-26T08:08:34.267Z,55.08
2023-04-26T08:09:34.330Z,54.53
2023-04-26T08:10:34.244Z,53.33
2023-04-26T08:11:34.299Z,53.79
2023-04-26T08:12:34.220Z,55.05
2023-04-26T08:13:34.211Z,57.21
2023-04-26T08:14:34.209Z,56.93
2023-04-26T08:15:34.230Z,56.54
2023-04-26T08:16:34.244Z,57.26
2023-04-26T08:17:41.466Z,56.87
2023-04-26T08:18:34.201Z,58.86
2023-04-26T08:19:34.162Z,56.26
2023-04-26T08:20:34.173Z,55.28
2023-04-26T08:21:34.189Z,56.82
2023-04-26T08:22:34.188Z,56.59
2023-04-26T08:23:34.125Z,56.70
2023-04-26T08:24:34.130Z,57.88
2023-04-26T08:25:34.119Z,56.79
2023-04-26T08:26:34.096Z,55.26
2023-04-26T08:27:34.227Z,53.89
2023-04-26T08:28:34.107Z,53.87
2023-04-26T08:29:34.099Z,54.97
2023-04-26T08:30:34.119Z,51.15
2023-04-26T08:31:34.169Z,52.05
2023-04-26T08:32:34.165Z,50.95
2023-04-26T08:33:34.117Z,52.56
2023-04-26T08:34:34.068Z,52.36
2023-04-26T08:35:34.069Z,51.15
2023-04-26T08:36:34.024Z,51.95
2023-04-26T08:37:34.025Z,50.93
2023-04-26T08:38:34.028Z,52.26
2023-04-26T08:39:34.290Z,51.03
2023-04-26T08:40:34.017Z,50.82
2023-04-26T08:41:34.037Z,50.59
2023-04-26T08:42:34.701Z,51.51
2023-04-26T08:43:34.096Z,50.26
2023-04-26T08:44:33.980Z,50.97
2023-04-26T08:45:34.013Z,50.87
2023-04-26T08:46:34.015Z,51.03
2023-04-26T08:47:33.974Z,48.47
2023-04-26T08:48:33.947Z,48.65
2023-04-26T08:49:33.936Z,48.47
2023-04-26T08:50:33.969Z,47.77
2023-04-26T08:51:33.984Z,49.37
2023-04-26T08:52:33.919Z,46.15
2023-04-26T08:53:34.028Z,46.41
2023-04-26T08:54:33.906Z,44.14
2023-04-26T08:55:33.900Z,45.53
2023-04-26T08:56:33.895Z,44.90
2023-04-26T08:57:33.923Z,44.20
2023-04-26T08:58:33.881Z,46.26
2023-04-26T08:59:33.878Z,44.24
2023-04-26T09:00:33.871Z,46.74
2023-04-26T09:01:33.923Z,45.60
2023-04-26T09:02:33.991Z,47.69
2023-04-26T09:03:33.976Z,47.28
2023-04-26T09:04:34.138Z,49.33
2023-04-26T09:05:33.844Z,50.36
2023-04-26T09:06:33.820Z,50.77
2023-04-26T09:07:33.837Z,50.18
2023-04-26T09:08:33.806Z,50.38
2023-04-26T09:09:33.849Z,50.38
2023-04-26T09:10:33.810Z,49.89
2023-04-26T09:11:33.796Z,50.82
2023-04-26T09:12:33.773Z,50.82
2023-04-26T09:13:33.764Z,50.82
2023-04-26T09:14:33.759Z,51.33
2023-04-26T09:15:33.856Z,51.04
2023-04-26T09:16:33.803Z,51.81
2023-04-26T09:17:33.782Z,53.12
2023-04-26T09:18:33.735Z,51.48
2023-04-26T09:19:33.711Z,52.94
2023-04-26T09:20:33.715Z,51.81
2023-04-26T09:21:33.729Z,52.69
2023-04-26T09:22:33.693Z,51.64
2023-04-26T09:23:33.690Z,50.90
2023-04-26T09:24:33.671Z,50.51
2023-04-26T09:25:33.686Z,49.27
2023-04-26T09:26:33.682Z,49.89
2023-04-26T09:27:33.670Z,49.07
2023-04-26T09:28:33.644Z,49.69
2023-04-26T09:29:33.625Z,50.10
2023-04-26T09:30:33.630Z,50.63
2023-04-26T09:31:33.747Z,50.74
2023-04-26T09:32:33.682Z,49.99
2023-04-26T09:33:33.678Z,49.46
2023-04-26T09:34:33.611Z,48.92
2023-04-26T09:35:33.609Z,49.02
2023-04-26T09:36:33.640Z,49.80
2023-04-26T09:37:34.566Z,48.42
2023-04-26T09:38:33.572Z,46.48
2023-04-26T09:39:33.589Z,46.60
2023-04-26T09:40:33.568Z,45.98
2023-04-26T09:41:33.561Z,46.17
2023-04-26T09:42:33.542Z,47.22
2023-04-26T09:43:35.818Z,46.70
2023-04-26T09:44:33.567Z,48.65
2023-04-26T09:45:33.974Z,47.50
2023-04-26T09:46:33.547Z,46.99
2023-04-26T09:47:33.543Z,46.97
2023-04-26T09:48:33.490Z,46.35
2023-04-26T09:49:33.486Z,45.27
2023-04-26T09:50:33.505Z,45.97
2023-04-26T09:51:33.500Z,46.81
2023-04-26T09:52:33.476Z,47.34
2023-04-26T09:53:33.472Z,47.93
2023-04-26T09:54:33.497Z,48.14
2023-04-26T09:55:35.339Z,48.63
2023-04-26T09:56:33.450Z,47.31
2023-04-26T09:57:33.458Z,48.88
2023-04-26T09:58:33.417Z,47.83
2023-04-26T09:59:33.413Z,48.79
2023-04-26T10:00:33.472Z,47.86
2023-04-26T10:01:33.497Z,48.64
2023-04-26T10:02:33.488Z,46.74
2023-04-26T10:03:33.585Z,46.07
2023-04-26T10:04:33.449Z,48.65
2023-04-26T10:05:34.155Z,47.42
2023-04-26T10:06:33.371Z,47.11
2023-04-26T10:07:33.352Z,46.11
2023-04-26T10:08:33.379Z,46.13
2023-04-26T10:09:33.481Z,47.44
2023-04-26T10:10:33.353Z,47.31
2023-04-26T10:11:33.325Z,48.24
2023-04-26T10:12:33.412Z,48.14
2023-04-26T10:13:33.400Z,47.30
2023-04-26T10:14:33.309Z,46.60
2023-04-26T10:15:33.328Z,46.86
2023-04-26T10:16:33.303Z,44.31
2023-04-26T10:17:33.369Z,45.10
2023-04-26T10:18:33.258Z,45.08
2023-04-26T10:19:33.338Z,43.37
2023-04-26T10:20:33.263Z,43.84
2023-04-26T10:21:33.289Z,42.49
2023-04-26T10:22:33.240Z,43.00
2023-04-26T10:23:33.251Z,41.89
2023-04-26T10:24:33.222Z,42.47
2023-04-26T10:25:33.252Z,43.41
2023-04-26T10:26:33.210Z,45.04
2023-04-26T10:27:33.239Z,44.84
2023-04-26T10:28:33.221Z,44.17
2023-04-26T10:29:33.191Z,44.23
2023-04-26T10:30:33.200Z,46.39
2023-04-26T10:31:33.970Z,46.62
2023-04-26T10:32:33.160Z,47.41
2023-04-26T10:33:33.185Z,48.86
2023-04-26T10:34:33.162Z,49.17
2023-04-26T10:35:33.169Z,49.33
2023-04-26T10:36:33.144Z,47.79
2023-04-26T10:37:33.133Z,48.47
2023-04-26T10:38:33.171Z,47.55
2023-04-26T10:39:33.189Z,48.51
2023-04-26T10:40:33.099Z,47.30
2023-04-26T10:41:33.168Z,48.54
2023-04-26T10:42:33.102Z,48.74
2023-04-26T10:43:33.077Z,48.51
2023-04-26T10:44:33.113Z,47.75
2023-04-26T10:45:33.102Z,47.89
2023-04-26T10:46:33.177Z,48.67
2023-04-26T10:47:33.110Z,47.60
2023-04-26T10:48:33.072Z,46.35
2023-04-26T10:49:33.030Z,49.06
2023-04-26T10:50:33.029Z,47.48
2023-04-26T10:51:33.521Z,47.35
2023-04-26T10:52:33.102Z,46.30
2023-04-26T10:53:33.026Z,47.22
2023-04-26T10:54:32.996Z,47.99
2023-04-26T10:55:32.989Z,46.64
2023-04-26T10:56:33.026Z,46.31
2023-04-26T10:57:33.023Z,44.24
2023-04-26T10:58:32.969Z,44.24
2023-04-26T10:59:43.428Z,44.65
2023-04-26T11:00:33.956Z,44.67
2023-04-26T11:01:32.957Z,45.29
2023-04-26T11:02:32.991Z,45.06
2023-04-26T11:03:33.200Z,44.20
2023-04-26T11:04:32.936Z,44.28
2023-04-26T11:05:32.941Z,43.32
2023-04-26T11:06:32.951Z,44.71
2023-04-26T11:07:32.891Z,45.86
2023-04-26T11:08:32.917Z,45.33
2023-04-26T11:09:32.946Z,44.61
2023-04-26T11:10:33.982Z,44.20
2023-04-26T11:11:32.973Z,46.19
2023-04-26T11:12:32.912Z,46.60
2023-04-26T11:13:32.894Z,45.86
2023-04-26T11:14:32.883Z,45.23
2023-04-26T11:15:32.917Z,45.29
2023-04-26T11:16:32.865Z,45.96
2023-04-26T11:17:32.867Z,43.49
2023-04-26T11:18:32.854Z,43.26
2023-04-26T11:19:32.823Z,44.34
2023-04-26T11:20:32.812Z,42.92
2023-04-26T11:21:32.853Z,42.30
2023-04-26T11:22:33.834Z,43.08
2023-04-26T11:23:32.840Z,41.39
2023-04-26T11:24:32.867Z,41.69
2023-04-26T11:25:32.762Z,42.10
2023-04-26T11:26:32.820Z,41.80
2023-04-26T11:27:32.904Z,42.71
2023-04-26T11:28:34.288Z,41.23
2023-04-26T11:29:32.805Z,39.07
2023-04-26T11:30:32.776Z,40.62
2023-04-26T11:31:32.814Z,39.72
2023-04-26T11:32:32.725Z,41.49
2023-04-26T11:33:32.810Z,40.78
2023-04-26T11:34:32.725Z,40.80
2023-04-26T11:35:32.703Z,41.82
2023-04-26T11:36:32.681Z,40.94
2023-04-26T11:37:32.701Z,43.14
2023-04-26T11:38:32.722Z,44.24
2023-04-26T11:39:32.761Z,42.63
2023-04-26T11:40:32.709Z,43.61
2023-04-26T11:41:32.688Z,41.89
2023-04-26T11:42:32.655Z,41.89
2023-04-26T11:43:32.679Z,43.73
2023-04-26T11:44:32.680Z,42.18
2023-04-26T11:45:32.682Z,42.88
2023-04-26T11:46:32.703Z,40.49
2023-04-26T11:47:32.644Z,41.00
2023-04-26T11:48:32.596Z,37.88
2023-04-26T11:49:32.612Z,37.44
2023-04-26T11:50:32.584Z,35.90
2023-04-26T11:51:32.655Z,34.58
2023-04-26T11:52:32.578Z,35.99
2023-04-26T11:53:32.602Z,37.18
2023-04-26T11:54:32.549Z,37.08
2023-04-26T11:55:32.545Z,37.61
2023-04-26T11:56:32.553Z,39.07
2023-04-26T11:57:32.801Z,37.53
2023-04-26T11:58:32.574Z,36.92
2023-04-26T11:59:32.521Z,38.74
2023-04-26T12:00:32.517Z,39.51
2023-04-26T12:01:32.533Z,42.06
2023-04-26T12:02:32.629Z,44.12
2023-04-26T12:03:32.683Z,40.33
2023-04-26T12:04:32.640Z,40.28
2023-04-26T12:05:32.520Z,40.98
2023-04-26T12:06:32.492Z,40.52
2023-04-26T12:07:32.455Z,39.66
2023-04-26T12:08:32.457Z,38.07
2023-04-26T12:09:32.509Z,39.55
2023-04-26T12:10:32.474Z,39.64
2023-04-26T12:11:32.433Z,40.51
2023-04-26T12:12:32.473Z,41.88
2023-04-26T12:13:32.423Z,43.08
2023-04-26T12:14:32.407Z,42.55
2023-04-26T12:15:32.498Z,42.65
2023-04-26T12:16:32.436Z,42.82
2023-04-26T12:17:32.440Z,41.66
2023-04-26T12:18:32.388Z,41.23
2023-04-26T12:19:32.393Z,39.89
2023-04-26T12:20:32.354Z,39.62
2023-04-26T12:21:32.427Z,41.41
2023-04-26T12:22:32.330Z,42.83
2023-04-26T12:23:32.335Z,42.85
2023-04-26T12:24:32.340Z,43.29
2023-04-26T12:25:32.349Z,42.00
2023-04-26T12:26:32.375Z,42.81
2023-04-26T12:27:32.377Z,42.69
2023-04-26T12:28:32.350Z,41.97
2023-04-26T12:29:32.302Z,42.55
2023-04-26T12:30:32.329Z,43.32
2023-04-26T12:31:32.309Z,41.69
2023-04-26T12:32:32.313Z,41.82
2023-04-26T12:33:32.376Z,42.02
2023-04-26T12:34:32.274Z,42.02
2023-04-26T12:35:32.310Z,41.92
2023-04-26T12:36:32.310Z,41.82
2023-04-26T12:37:33.293Z,41.88
2023-04-26T12:38:32.230Z,39.92
2023-04-26T12:39:32.291Z,38.76
2023-04-26T12:40:32.245Z,38.83
2023-04-26T12:41:32.230Z,37.87
2023-04-26T12:42:32.231Z,36.49
2023-04-26T12:43:32.261Z,36.05
2023-04-26T12:44:32.223Z,35.02
2023-04-26T12:45:32.250Z,34.91
2023-04-26T12:46:32.250Z,34.13
2023-04-26T12:47:32.289Z,35.04
2023-04-26T12:48:32.162Z,35.48
2023-04-26T12:49:32.174Z,36.39
2023-04-26T12:50:32.170Z,36.82
2023-04-26T12:51:32.255Z,36.27
2023-04-26T12:52:32.197Z,36.76